createdAt,value
2022-10-23T00:01:46.934Z,92.20
2022-10-23T00:04:19.560Z,92.20
2022-10-23T00:06:48.793Z,92.20
2022-10-23T00:09:19.096Z,92.20
2022-10-23T00:11:51.380Z,92.20
2022-10-23T00:14:22.713Z,92.20
2022-10-23T00:16:50.800Z,92.20
2022-10-23T00:19:18.614Z,92.20
2022-10-23T00:21:46.350Z,92.20
2022-10-23T00:24:13.927Z,92.20
2022-10-23T00:26:42.074Z,92.20
2022-10-23T00:29:10.460Z,92.20
2022-10-23T00:31:38.818Z,92.20
2022-10-23T00:34:09.015Z,92.20
2022-10-23T00:36:37.132Z,92.20
2022-10-23T00:39:06.223Z,92.20
2022-10-23T00:41:34.405Z,92.20
2022-10-23T00:44:28.155Z,92.20
2022-10-23T00:47:02.734Z,92.20
2022-10-23T00:49:32.476Z,92.20
2022-10-23T00:52:07.321Z,92.20
2022-10-23T00:54:38.994Z,92.20
2022-10-23T00:57:10.234Z,92.20
2022-10-23T00:59:38.007Z,92.20
2022-10-23T01:02:06.559Z,92.20
2022-10-23T01:04:38.338Z,92.20
2022-10-23T01:07:14.827Z,92.20
2022-10-23T01:10:08.982Z,92.20
2022-10-23T01:12:59.928Z,92.20
2022-10-23T01:15:31.642Z,92.20
2022-10-23T01:18:12.390Z,92.20
2022-10-23T01:21:08.328Z,92.20
2022-10-23T01:23:42.874Z,92.20
2022-10-23T01:26:34.887Z,92.20
2022-10-23T01:29:36.064Z,92.20
2022-10-23T01:32:11.302Z,92.20
2022-10-23T01:34:48.201Z,92.20
2022-10-23T01:37:23.741Z,92.20
2022-10-23T01:39:57.422Z,92.20
2022-10-23T01:42:34.432Z,92.20
2022-10-23T01:45:08.581Z,92.20
2022-10-23T01:47:37.292Z,92.20
2022-10-23T01:50:07.704Z,92.20
2022-10-23T01:52:38.262Z,92.20
2022-10-23T01:55:08.252Z,92.20
2022-10-23T01:57:37.824Z,92.20
2022-10-23T02:00:10.829Z,92.20
2022-10-23T02:02:41.474Z,92.20
2022-10-23T02:05:12.850Z,92.20
2022-10-23T02:07:40.959Z,92.20
2022-10-23T02:10:10.283Z,92.20
2022-10-23T02:13:08.815Z,92.20
2022-10-23T02:15:46.468Z,92.20
2022-10-23T02:18:45.388Z,92.20
2022-10-23T02:21:18.255Z,92.20
2022-10-23T02:23:56.303Z,92.20
2022-10-23T02:26:38.800Z,92.20
2022-10-23T02:29:30.145Z,92.20
2022-10-23T02:32:01.651Z,92.20
2022-10-23T02:34:30.339Z,92.20
2022-10-23T02:36:58.175Z,92.20
2022-10-23T02:39:28.405Z,92.20
2022-10-23T02:42:28.431Z,92.20
2022-10-23T02:45:08.127Z,92.20
2022-10-23T02:48:04.361Z,92.20
2022-10-23T02:51:16.530Z,92.20
2022-10-23T02:53:53.175Z,92.20
2022-10-23T02:56:54.637Z,92.20
2022-10-23T02:59:27.493Z,92.20
2022-10-23T03:04:59.840Z,92.20
2022-10-23T03:07:33.857Z,92.20
2022-10-23T03:10:02.240Z,92.20
2022-10-23T03:12:30.262Z,92.20
2022-10-23T03:14:58.439Z,92.20
2022-10-23T03:17:26.431Z,92.20
2022-10-23T03:19:54.669Z,92.20
2022-10-23T03:22:22.181Z,92.20
2022-10-23T03:24:50.129Z,92.20
2022-10-23T03:27:17.682Z,92.20
2022-10-23T03:29:45.450Z,92.20
2022-10-23T03:32:13.170Z,92.20
2022-10-23T03:34:40.702Z,92.20
2022-10-23T03:37:08.395Z,92.20
2022-10-23T03:39:38.866Z,92.20
2022-10-23T03:42:06.915Z,92.20
2022-10-23T03:44:35.465Z,92.20
2022-10-23T03:47:03.602Z,92.20
2022-10-23T03:49:37.958Z,92.20
2022-10-23T03:52:06.711Z,92.20
2022-10-23T03:54:34.918Z,92.20
2022-10-23T03:57:03.184Z,92.20
2022-10-23T03:59:31.180Z,92.20
2022-10-23T04:02:01.870Z,92.20
2022-10-23T04:04:29.635Z,92.20
2022-10-23T04:06:57.327Z,92.20
2022-10-23T04:09:25.272Z,92.20
2022-10-23T04:11:56.107Z,92.20
2022-10-23T04:14:24.089Z,92.20
2022-10-23T04:16:52.006Z,92.20
2022-10-23T04:19:19.779Z,92.20
2022-10-23T04:21:50.577Z,92.20
2022-10-23T04:24:18.223Z,92.20
2022-10-23T04:26:45.814Z,92.20
2022-10-23T04:29:14.060Z,92.20
2022-10-23T04:31:41.934Z,92.20
2022-10-23T04:34:09.647Z,92.20
2022-10-23T04:36:37.237Z,92.20
2022-10-23T04:39:04.957Z,92.20
2022-10-23T04:41:36.183Z,92.20
2022-10-23T04:44:04.056Z,92.20
2022-10-23T04:46:32.343Z,92.20
2022-10-23T04:49:00.865Z,92.20
2022-10-23T04:51:29.018Z,92.20
2022-10-23T04:53:59.633Z,92.20
2022-10-23T04:56:27.133Z,92.20
2022-10-23T04:58:55.285Z,92.20
2022-10-23T05:01:23.086Z,92.20
2022-10-23T05:03:55.043Z,92.20
2022-10-23T05:06:23.072Z,92.20
2022-10-23T05:08:51.359Z,92.20
2022-10-23T05:11:19.253Z,92.20
2022-10-23T05:13:47.199Z,92.20
2022-10-23T05:16:44.365Z,92.20
2022-10-23T05:19:15.584Z,92.20
2022-10-23T05:21:43.514Z,92.20
2022-10-23T05:24:12.326Z,92.20
2022-10-23T05:26:39.796Z,92.20
2022-10-23T05:29:07.384Z,92.20
2022-10-23T05:31:36.836Z,92.20
2022-10-23T05:34:04.185Z,92.20
2022-10-23T05:36:32.481Z,92.20
2022-10-23T05:39:00.468Z,92.20
2022-10-23T05:41:27.856Z,92.20
2022-10-23T05:43:55.266Z,92.20
2022-10-23T05:46:23.525Z,92.20
2022-10-23T05:48:51.738Z,92.20
2022-10-23T05:51:23.747Z,92.20
2022-10-23T05:53:52.334Z,92.20
2022-10-23T05:56:19.959Z,92.20
2022-10-23T05:58:47.280Z,92.20
2022-10-23T06:01:15.864Z,92.20
2022-10-23T06:03:43.200Z,92.20
2022-10-23T06:06:10.525Z,92.20
2022-10-23T06:08:37.902Z,92.20
2022-10-23T06:11:10.266Z,92.20
2022-10-23T06:13:38.254Z,92.20
2022-10-23T06:16:20.123Z,92.20
2022-10-23T06:18:48.302Z,92.20
2022-10-23T06:21:16.908Z,92.20
2022-10-23T06:23:45.760Z,92.20
2022-10-23T06:26:15.384Z,92.20
2022-10-23T06:28:43.055Z,92.20
2022-10-23T06:31:13.461Z,92.20
2022-10-23T06:33:41.867Z,92.20
2022-10-23T06:36:10.955Z,92.20
2022-10-23T06:38:40.824Z,92.20
2022-10-23T06:41:14.164Z,92.20
2022-10-23T06:43:41.845Z,92.20
2022-10-23T06:46:10.171Z,92.20
2022-10-23T06:48:37.518Z,92.20
2022-10-23T06:51:07.416Z,92.20
2022-10-23T06:53:36.179Z,92.20
2022-10-23T06:56:06.147Z,92.20
2022-10-23T06:58:35.031Z,92.20
2022-10-23T07:01:07.327Z,92.20
2022-10-23T07:03:35.783Z,92.20
2022-10-23T07:06:07.241Z,92.20
2022-10-23T07:08:35.001Z,92.20
2022-10-23T07:11:07.380Z,92.20
2022-10-23T07:13:36.129Z,92.20
2022-10-23T07:16:12.156Z,92.20
2022-10-23T07:18:39.809Z,92.20
2022-10-23T07:21:07.288Z,92.20
2022-10-23T07:23:34.846Z,92.20
2022-10-23T07:26:11.162Z,92.20
2022-10-23T07:28:39.250Z,92.20
2022-10-23T07:31:06.586Z,92.20
2022-10-23T07:33:36.993Z,92.20
2022-10-23T07:36:08.882Z,92.20
2022-10-23T07:38:36.694Z,92.20
2022-10-23T07:41:06.865Z,92.20
2022-10-23T07:43:37.839Z,92.20
2022-10-23T07:46:05.511Z,92.20
2022-10-23T07:48:33.108Z,92.20
2022-10-23T07:51:02.247Z,92.20
2022-10-23T07:53:30.015Z,92.20
2022-10-23T07:56:01.695Z,92.20
2022-10-23T07:58:30.094Z,92.20
2022-10-23T08:01:03.063Z,92.20
2022-10-23T08:03:32.735Z,92.20
2022-10-23T08:06:00.634Z,92.20
2022-10-23T08:08:28.194Z,92.20
2022-10-23T08:10:56.017Z,92.20
2022-10-23T08:13:24.459Z,92.20
2022-10-23T08:15:53.591Z,92.20
2022-10-23T08:18:21.162Z,92.20
2022-10-23T08:20:51.380Z,92.20
2022-10-23T08:23:20.251Z,92.20
2022-10-23T08:25:47.959Z,92.20
2022-10-23T08:28:17.248Z,92.20
2022-10-23T08:30:44.511Z,92.20
2022-10-23T08:33:11.812Z,92.20
2022-10-23T08:35:39.560Z,92.20
2022-10-23T08:38:08.241Z,92.20
2022-10-23T08:40:36.550Z,92.20
2022-10-23T08:43:12.268Z,92.20
2022-10-23T08:46:04.238Z,90.80
2022-10-23T08:48:51.624Z,89.90
2022-10-23T08:51:26.411Z,88.50
2022-10-23T08:54:10.818Z,87.40
2022-10-23T08:57:11.856Z,87.30
2022-10-23T08:59:43.544Z,85.50
2022-10-23T09:02:17.823Z,83.80
2022-10-23T09:04:49.078Z,84.00
2022-10-23T09:07:56.730Z,83.70
2022-10-23T09:10:48.144Z,84.60
2022-10-23T09:14:00.149Z,83.90
2022-10-23T09:16:58.170Z,81.70
2022-10-23T09:19:28.299Z,81.90
2022-10-23T09:21:57.039Z,82.00
2022-10-23T09:24:26.362Z,80.90
2022-10-23T09:26:54.743Z,79.40
2022-10-23T09:29:29.128Z,78.10
2022-10-23T09:31:58.722Z,78.10
2022-10-23T09:34:28.356Z,77.20
2022-10-23T09:36:58.693Z,77.80
2022-10-23T09:39:36.116Z,77.80
2022-10-23T09:42:25.938Z,76.50
2022-10-23T09:44:55.050Z,75.60
2022-10-23T09:47:25.731Z,76.30
2022-10-23T09:49:57.404Z,76.10
2022-10-23T09:52:38.819Z,75.70
2022-10-23T09:55:26.098Z,74.40
2022-10-23T09:57:55.191Z,74.40
2022-10-23T10:00:28.001Z,75.30
2022-10-23T10:02:56.671Z,75.40
2022-10-23T10:05:32.926Z,74.70
2022-10-23T10:08:10.315Z,74.40
2022-10-23T10:10:44.229Z,72.80
2022-10-23T10:13:40.332Z,74.50
2022-10-23T10:16:20.401Z,72.00
2022-10-23T10:19:05.198Z,72.50
2022-10-23T10:22:23.267Z,71.80
2022-10-23T10:25:09.266Z,72.80
2022-10-23T10:27:57.322Z,72.00
2022-10-23T10:30:25.805Z,73.90
2022-10-23T10:33:05.668Z,74.00
2022-10-23T10:35:47.796Z,75.50
2022-10-23T10:38:18.002Z,77.20
2022-10-23T10:41:09.902Z,79.40
2022-10-23T10:43:58.587Z,80.00
2022-10-23T10:46:35.547Z,80.90
2022-10-23T10:49:13.401Z,82.60
2022-10-23T10:52:01.023Z,82.60
2022-10-23T10:54:55.045Z,82.80
2022-10-23T10:57:22.222Z,80.70
2022-10-23T10:59:53.467Z,80.40
2022-10-23T11:02:32.447Z,82.00
2022-10-23T11:05:37.911Z,82.90
2022-10-23T11:08:21.882Z,84.10
2022-10-23T11:10:55.131Z,84.30
2022-10-23T11:13:30.007Z,85.60
2022-10-23T11:16:04.894Z,86.70
2022-10-23T11:18:34.028Z,86.50
2022-10-23T11:21:26.105Z,87.20
2022-10-23T11:24:16.093Z,87.40
2022-10-23T11:27:02.557Z,87.30
2022-10-23T11:29:54.575Z,87.20
2022-10-23T11:33:05.837Z,86.90
2022-10-23T11:35:45.664Z,86.70
2022-10-23T11:38:24.217Z,86.80
2022-10-23T11:41:01.271Z,86.10
2022-10-23T11:43:47.774Z,83.90
2022-10-23T11:46:32.431Z,81.80
2022-10-23T11:49:02.827Z,83.60
2022-10-23T11:51:41.822Z,82.60
2022-10-23T11:54:17.911Z,84.00
2022-10-23T11:57:16.141Z,82.50
2022-10-23T11:59:48.921Z,83.50
2022-10-23T12:02:21.561Z,80.50
2022-10-23T12:04:52.787Z,80.10
2022-10-23T12:07:33.888Z,77.20
2022-10-23T12:10:06.041Z,77.10
2022-10-23T12:12:42.848Z,77.00
2022-10-23T12:15:15.705Z,77.70
2022-10-23T12:17:44.066Z,76.90
2022-10-23T12:20:11.668Z,78.00
2022-10-23T12:23:01.068Z,77.90
2022-10-23T12:26:05.842Z,79.40
2022-10-23T12:29:02.671Z,78.40
2022-10-23T12:31:57.507Z,78.40
2022-10-23T12:34:59.443Z,76.60
2022-10-23T12:37:51.850Z,76.40
2022-10-23T12:40:19.482Z,74.70
2022-10-23T12:42:57.792Z,73.50
2022-10-23T12:45:35.542Z,72.60
2022-10-23T12:48:04.697Z,72.80
2022-10-23T12:50:34.433Z,70.90
2022-10-23T12:53:12.591Z,71.00
2022-10-23T12:55:56.940Z,72.20
2022-10-23T12:58:35.122Z,72.60
2022-10-23T13:01:07.481Z,72.80
2022-10-23T13:03:37.526Z,72.70
2022-10-23T13:06:06.218Z,71.70
2022-10-23T13:08:43.265Z,70.70
2022-10-23T13:11:17.626Z,71.10
2022-10-23T13:13:51.731Z,72.20
2022-10-23T13:16:24.644Z,71.40
2022-10-23T13:18:54.441Z,73.00
2022-10-23T13:21:28.931Z,71.70
2022-10-23T13:23:56.702Z,71.70
2022-10-23T13:26:45.863Z,71.80
2022-10-23T13:29:31.953Z,70.40
2022-10-23T13:32:13.508Z,70.30
2022-10-23T13:34:58.088Z,72.10
2022-10-23T13:37:31.727Z,72.40
2022-10-23T13:40:10.048Z,72.00
2022-10-23T13:42:37.329Z,72.40
2022-10-23T13:45:10.276Z,72.40
2022-10-23T13:47:37.575Z,72.60
2022-10-23T13:50:08.173Z,72.60
2022-10-23T13:52:39.498Z,72.70
2022-10-23T13:55:23.301Z,73.40
2022-10-23T13:57:50.793Z,74.70
2022-10-23T14:00:19.819Z,75.60
2022-10-23T14:02:47.591Z,76.30
2022-10-23T14:05:15.522Z,77.00
2022-10-23T14:07:43.587Z,77.50
2022-10-23T14:10:12.517Z,78.10
2022-10-23T14:12:45.745Z,79.10
2022-10-23T14:15:19.977Z,79.90
2022-10-23T14:17:48.904Z,80.60
2022-10-23T14:20:25.756Z,81.00
2022-10-23T14:22:55.803Z,81.30
2022-10-23T14:25:24.144Z,81.30
2022-10-23T14:30:21.382Z,83.00
2022-10-23T14:32:50.231Z,83.20
2022-10-23T14:35:17.499Z,83.80
2022-10-23T14:37:45.599Z,84.20
2022-10-23T14:40:13.339Z,85.10
2022-10-23T14:42:40.858Z,85.10
2022-10-23T14:45:08.742Z,85.10
2022-10-23T14:47:37.240Z,85.70
2022-10-23T14:50:06.862Z,85.20
2022-10-23T14:52:35.295Z,85.90
2022-10-23T14:55:02.840Z,86.30
2022-10-23T14:57:30.396Z,86.40
2022-10-23T14:59:57.760Z,86.80
2022-10-23T15:02:25.210Z,86.80
2022-10-23T15:04:52.568Z,87.30
2022-10-23T15:07:20.214Z,86.60
2022-10-23T15:09:47.670Z,86.60
2022-10-23T15:12:15.098Z,87.20
2022-10-23T15:14:42.603Z,87.50
2022-10-23T15:17:15.454Z,88.00
2022-10-23T15:19:43.742Z,88.50
2022-10-23T15:22:11.095Z,89.20
2022-10-23T15:24:38.646Z,89.90
2022-10-23T15:27:06.015Z,90.20
2022-10-23T15:29:33.465Z,90.60
2022-10-23T15:32:03.080Z,91.00
2022-10-23T15:34:32.770Z,91.40
2022-10-23T15:37:01.113Z,91.80
2022-10-23T15:39:34.039Z,91.90
2022-10-23T15:42:02.316Z,92.20
2022-10-23T15:44:35.825Z,92.20
2022-10-23T15:47:03.410Z,92.20
2022-10-23T15:49:30.823Z,92.20
2022-10-23T15:52:18.442Z,92.20
2022-10-23T15:54:45.742Z,92.20
2022-10-23T15:57:13.208Z,92.20
2022-10-23T15:59:40.566Z,92.20
2022-10-23T16:02:08.066Z,92.20
2022-10-23T16:04:35.928Z,92.20
2022-10-23T16:07:03.327Z,92.20
2022-10-23T16:09:30.658Z,92.20
2022-10-23T16:11:58.034Z,92.20
2022-10-23T16:14:25.342Z,92.20
2022-10-23T16:16:52.606Z,92.20
2022-10-23T16:19:20.056Z,92.20
2022-10-23T16:21:47.317Z,92.20
2022-10-23T16:24:14.612Z,92.20
2022-10-23T16:26:42.342Z,92.20
2022-10-23T16:29:10.336Z,92.20
2022-10-23T16:31:37.992Z,92.20
2022-10-23T16:34:06.150Z,92.20
2022-10-23T16:36:34.149Z,92.20
2022-10-23T16:39:03.525Z,92.20
2022-10-23T16:41:31.041Z,92.20
2022-10-23T16:43:59.306Z,92.20
2022-10-23T16:46:28.621Z,92.20
2022-10-23T16:48:56.327Z,92.20
2022-10-23T16:51:26.774Z,92.20
2022-10-23T16:53:55.008Z,92.20
2022-10-23T16:56:26.131Z,92.20
2022-10-23T16:58:53.523Z,92.20
2022-10-23T17:01:23.599Z,92.20
2022-10-23T17:03:52.400Z,92.20
2022-10-23T17:06:29.422Z,92.20
2022-10-23T17:08:58.601Z,92.20
2022-10-23T17:11:29.339Z,92.20
2022-10-23T17:14:01.923Z,92.20
2022-10-23T17:16:36.965Z,92.20
2022-10-23T17:19:20.526Z,92.20
2022-10-23T17:21:57.844Z,92.20
2022-10-23T17:24:26.037Z,92.20
2022-10-23T17:26:54.629Z,92.20
2022-10-23T17:29:22.646Z,92.20
2022-10-23T17:31:51.471Z,92.20
2022-10-23T17:34:23.993Z,92.20
2022-10-23T17:36:53.976Z,92.20
2022-10-23T17:39:25.000Z,92.20
2022-10-23T17:41:53.084Z,92.20
2022-10-23T17:44:21.046Z,92.20
2022-10-23T17:46:53.906Z,92.20
2022-10-23T17:49:23.703Z,92.20
2022-10-23T17:51:53.731Z,92.20
2022-10-23T17:54:22.042Z,92.20
2022-10-23T17:56:49.430Z,92.20
2022-10-23T17:59:22.407Z,92.20
2022-10-23T18:01:52.288Z,92.20
2022-10-23T18:04:22.922Z,92.20
2022-10-23T18:06:53.279Z,92.20
2022-10-23T18:09:22.679Z,92.20
2022-10-23T18:11:50.394Z,92.20
2022-10-23T18:14:20.192Z,92.20
2022-10-23T18:16:47.578Z,92.20
2022-10-23T18:19:18.109Z,92.20
2022-10-23T18:21:47.579Z,92.20
2022-10-23T18:24:16.005Z,92.20
2022-10-23T18:26:48.654Z,92.20
2022-10-23T18:29:17.678Z,92.20
2022-10-23T18:31:51.643Z,92.20
2022-10-23T18:34:21.682Z,92.20
2022-10-23T18:36:50.641Z,92.20
2022-10-23T18:39:25.527Z,92.20
2022-10-23T18:41:58.286Z,92.20
2022-10-23T18:44:29.709Z,92.20
2022-10-23T18:46:59.347Z,92.20
2022-10-23T18:49:32.679Z,92.20
2022-10-23T18:52:00.085Z,92.20
2022-10-23T18:54:30.718Z,92.20
2022-10-23T18:56:58.092Z,92.20
2022-10-23T18:59:25.768Z,92.20
2022-10-23T19:01:53.503Z,92.20
2022-10-23T19:04:20.973Z,92.20
2022-10-23T19:06:49.931Z,92.20
2022-10-23T19:09:17.295Z,92.20
2022-10-23T19:11:45.648Z,92.20
2022-10-23T19:14:20.109Z,92.20
2022-10-23T19:17:11.430Z,92.20
2022-10-23T19:19:45.861Z,92.20
2022-10-23T19:22:17.484Z,92.20
2022-10-23T19:24:53.366Z,92.20
2022-10-23T19:27:21.353Z,92.20
2022-10-23T19:29:51.527Z,92.20
2022-10-23T19:32:19.736Z,92.20
2022-10-23T19:34:47.474Z,92.20
2022-10-23T19:37:18.153Z,92.20
2022-10-23T19:39:46.605Z,92.20
2022-10-23T19:42:14.350Z,92.20
2022-10-23T19:44:42.068Z,92.20
2022-10-23T19:47:09.583Z,92.20
2022-10-23T19:49:41.056Z,92.20
2022-10-23T19:52:11.078Z,92.20
2022-10-23T19:54:41.411Z,92.20
2022-10-23T19:57:08.655Z,92.20
2022-10-23T19:59:40.124Z,92.20
2022-10-23T20:02:08.737Z,92.20
2022-10-23T20:04:36.845Z,92.20
2022-10-23T20:07:04.318Z,92.20
2022-10-23T20:09:32.192Z,92.20
2022-10-23T20:12:01.045Z,92.20
2022-10-23T20:14:28.338Z,92.20
2022-10-23T20:16:56.230Z,92.20
2022-10-23T20:19:23.818Z,92.20
2022-10-23T20:21:51.462Z,92.20
2022-10-23T20:24:20.478Z,92.20
2022-10-23T20:26:50.353Z,92.20
2022-10-23T20:29:18.326Z,92.20
2022-10-23T20:31:45.643Z,92.20
2022-10-23T20:34:13.665Z,92.20
2022-10-23T20:36:46.437Z,92.20
2022-10-23T20:39:20.841Z,92.20
2022-10-23T20:41:48.336Z,92.20
2022-10-23T20:46:51.016Z,92.20
2022-10-23T20:49:19.355Z,92.20
2022-10-23T20:51:55.925Z,92.20
2022-10-23T20:54:25.739Z,92.20
2022-10-23T20:56:53.441Z,92.20
2022-10-23T20:59:21.313Z,92.20
2022-10-23T21:01:50.429Z,92.20
2022-10-23T21:04:20.768Z,92.20
2022-10-23T21:07:08.829Z,92.20
2022-10-23T21:09:38.287Z,92.20
2022-10-23T21:12:06.933Z,92.20
2022-10-23T21:14:34.973Z,92.20
2022-10-23T21:17:02.634Z,92.20
2022-10-23T21:19:30.075Z,92.20
2022-10-23T21:21:58.185Z,92.20
2022-10-23T21:24:25.604Z,92.20
2022-10-23T21:26:52.851Z,92.20
2022-10-23T21:29:21.080Z,92.20
2022-10-23T21:32:03.909Z,92.20
2022-10-23T21:34:32.166Z,92.20
2022-10-23T21:37:12.615Z,92.20
2022-10-23T21:39:42.306Z,92.20
2022-10-23T21:42:09.710Z,92.20
2022-10-23T21:44:37.190Z,92.20
2022-10-23T21:47:04.682Z,92.20
2022-10-23T21:49:32.100Z,92.20
2022-10-23T21:52:01.528Z,92.20
2022-10-23T21:54:29.006Z,92.20
2022-10-23T21:56:56.333Z,92.20
2022-10-23T21:59:31.620Z,92.20
2022-10-23T22:02:00.598Z,92.20
2022-10-23T22:04:28.102Z,92.20
2022-10-23T22:06:55.713Z,92.20
2022-10-23T22:09:23.501Z,92.20
2022-10-23T22:11:52.462Z,92.20
2022-10-23T22:14:20.753Z,92.20
2022-10-23T22:16:49.014Z,92.20
2022-10-23T22:19:18.445Z,92.20
2022-10-23T22:21:46.706Z,92.20
2022-10-23T22:24:14.544Z,92.20
2022-10-23T22:26:51.866Z,92.20
2022-10-23T22:29:25.356Z,92.20
2022-10-23T22:31:53.096Z,92.20
2022-10-23T22:34:47.920Z,92.20
2022-10-23T22:37:12.488Z,92.20
2022-10-23T22:39:40.378Z,92.20
2022-10-23T22:42:08.063Z,92.20
2022-10-23T22:44:35.429Z,92.20
2022-10-23T22:47:02.907Z,92.20
2022-10-23T22:49:33.153Z,92.20
2022-10-23T22:52:00.619Z,92.20
2022-10-23T22:54:27.964Z,92.20
2022-10-23T22:56:55.206Z,92.20
2022-10-23T22:59:22.483Z,92.20
2022-10-23T23:01:50.487Z,92.20
2022-10-23T23:04:38.332Z,92.20
2022-10-23T23:07:09.281Z,92.20
2022-10-23T23:09:41.478Z,92.20
2022-10-23T23:12:11.488Z,92.20
2022-10-23T23:14:39.429Z,92.20
2022-10-23T23:17:08.525Z,92.20
2022-10-23T23:19:36.425Z,92.20
2022-10-23T23:22:07.757Z,92.20
2022-10-23T23:24:35.522Z,92.20
2022-10-23T23:27:02.955Z,92.20
2022-10-23T23:29:30.332Z,92.20
2022-10-23T23:31:57.895Z,92.20
2022-10-23T23:34:25.469Z,92.20
2022-10-23T23:36:52.997Z,92.20
2022-10-23T23:39:20.259Z,92.20
2022-10-23T23:41:47.820Z,92.20
2022-10-23T23:44:15.285Z,92.20
2022-10-23T23:46:42.638Z,92.20
2022-10-23T23:49:10.100Z,92.20
2022-10-23T23:51:37.570Z,92.20
2022-10-23T23:54:05.321Z,92.20
2022-10-23T23:56:32.685Z,92.20
2022-10-23T23:59:00.719Z,92.20
